Time;durP1;ratioP1;P1;durP2;ratioP2;P2;SDS_P1;SDS_P2;PMS_P1;PMS_P2;Temp;Humidity;BMP_temperature;BMP_pressure;BME280_temperature;BME280_humidity;BME280_pressure;Samples;Min_cycle;Max_cycle;Signal;HPM_P1;HPM_P2
2022/07/18 00:02:10;;;;;;;3.60;0.77;;;16.00;90.00;;;15.61;100.00;98302.81;5025598;28;20164;-63
2022/07/18 00:04:44;;;;;;;4.30;0.60;;;16.00;90.10;;;15.26;100.00;98305.47;5024965;28;20478;-65
2022/07/18 00:07:12;;;;;;;1.50;0.60;;;16.00;90.50;;;15.36;100.00;98308.47;5025593;28;20045;-65
2022/07/18 00:09:40;;;;;;;1.83;0.60;;;15.90;90.50;;;15.41;100.00;98303.84;5025386;28;20061;-63
2022/07/18 00:12:13;;;;;;;1.67;0.63;;;15.90;90.70;;;15.33;100.00;98308.63;5025840;28;20572;-65
2022/07/18 00:14:40;;;;;;;1.80;0.57;;;15.80;90.70;;;15.18;100.00;98306.78;5025928;28;20068;-64
2022/07/18 00:17:17;;;;;;;1.52;0.70;;;15.80;90.70;;;15.20;100.00;98307.53;5023234;28;20136;-63
2022/07/18 00:19:44;;;;;;;3.00;0.80;;;15.70;90.90;;;14.99;100.00;98305.06;5025381;28;20042;-63
2022/07/18 00:22:14;;;;;;;2.50;0.60;;;15.70;91.00;;;15.03;100.00;98300.53;5010015;28;20084;-64
2022/07/18 00:24:41;;;;;;;2.20;0.70;;;15.60;91.10;;;15.02;100.00;98299.66;5025242;28;20232;-65
2022/07/18 00:27:08;;;;;;;2.35;0.70;;;15.60;91.20;;;15.08;100.00;98292.47;5009131;28;20144;-64
2022/07/18 00:29:36;;;;;;;1.13;0.63;;;15.60;91.30;;;14.95;100.00;98293.06;5024961;28;20073;-64
2022/07/18 00:32:06;;;;;;;3.60;0.90;;;15.60;91.50;;;14.87;100.00;98297.81;5022765;28;20384;-66
2022/07/18 00:34:34;;;;;;;2.78;0.70;;;15.50;91.60;;;14.75;100.00;98299.25;5026438;28;20049;-64
2022/07/18 00:37:02;;;;;;;3.10;0.75;;;15.50;91.70;;;14.76;100.00;98298.34;5025153;28;20057;-65
2022/07/18 00:39:29;;;;;;;2.50;0.60;;;15.40;91.90;;;14.76;100.00;98295.72;4989057;28;20053;-65
2022/07/18 00:41:59;;;;;;;2.03;0.50;;;15.40;91.90;;;14.70;100.00;98297.78;5026419;28;20049;-63
2022/07/18 00:44:29;;;;;;;2.33;0.75;;;15.30;92.10;;;14.54;100.00;98295.88;5023527;28;20135;-62
2022/07/18 00:47:01;;;;;;;4.15;0.70;;;15.30;92.30;;;14.59;100.00;98300.91;5008680;28;20508;-64
2022/07/18 00:49:31;;;;;;;2.90;0.63;;;15.20;92.40;;;14.53;100.00;98301.13;5023782;28;20115;-64
2022/07/18 00:51:58;;;;;;;4.15;0.90;;;15.30;92.60;;;14.31;100.00;98307.38;5026145;28;20133;-65
2022/07/18 00:54:25;;;;;;;4.15;1.00;;;15.20;92.70;;;14.39;100.00;98301.78;5024133;28;20104;-64
2022/07/18 00:56:55;;;;;;;3.95;0.70;;;15.10;92.90;;;14.29;100.00;98300.53;5024373;28;20049;-64
2022/07/18 01:01:42;;;;;;;2.42;0.70;;;15.00;93.10;;;14.28;100.00;98302.31;5023581;28;20045;-64
2022/07/18 01:02:12;;;;;;;3.30;0.75;;;15.00;93.10;;;14.29;100.00;98295.31;5025981;28;20076;-64
2022/07/18 01:04:39;;;;;;;7.63;0.95;;;14.90;93.50;;;14.05;100.00;98298.13;5023699;28;20067;-63
2022/07/18 01:07:12;;;;;;;2.17;0.70;;;14.80;94.00;;;14.18;100.00;98294.03;5027206;28;20132;-65
2022/07/18 01:09:39;;;;;;;2.83;0.60;;;14.80;94.20;;;14.16;100.00;98301.09;5025026;28;20141;-63
2022/07/18 01:12:07;;;;;;;2.08;0.70;;;14.80;94.30;;;14.32;100.00;98280.38;5024339;28;20229;-64
2022/07/18 01:14:35;;;;;;;5.75;0.70;;;14.90;94.40;;;14.38;100.00;98285.28;5025893;28;20049;-65
2022/07/18 01:17:16;;;;;;;1.67;0.70;;;14.90;94.40;;;14.47;100.00;98278.78;5027775;28;20112;-64
2022/07/18 01:19:44;;;;;;;1.30;0.50;;;14.90;94.50;;;14.43;100.00;98282.44;5025523;28;20057;-63
2022/07/18 01:22:12;;;;;;;1.98;0.65;;;14.90;94.40;;;14.42;100.00;98283.38;5022812;28;20520;-64
2022/07/18 01:24:42;;;;;;;2.17;0.70;;;14.90;94.80;;;14.36;100.00;98281.06;5026245;28;20053;-65
2022/07/18 01:27:18;;;;;;;1.90;0.63;;;14.80;94.90;;;14.19;100.00;98281.84;5024242;28;20045;-64
2022/07/18 01:29:47;;;;;;;3.45;0.60;;;14.80;95.10;;;14.09;100.00;98285.78;5008620;28;20052;-65
2022/07/18 01:32:16;;;;;;;4.20;0.82;;;14.70;95.30;;;14.13;100.00;98282.94;5022182;28;20128;-64
2022/07/18 01:34:48;;;;;;;4.60;0.70;;;14.70;95.20;;;14.18;100.00;98277.53;5025460;28;20143;-65
2022/07/18 01:37:17;;;;;;;2.05;0.70;;;14.70;95.40;;;14.13;100.00;98280.34;5024620;28;20464;-64
2022/07/18 01:39:45;;;;;;;2.80;0.80;;;14.70;95.60;;;14.08;100.00;98290.16;5025995;28;20073;-64
2022/07/18 01:42:13;;;;;;;4.38;0.85;;;14.60;95.80;;;13.92;100.00;98282.16;5025456;28;20045;-64
2022/07/18 01:44:45;;;;;;;3.10;0.60;;;14.60;96.00;;;13.99;100.00;98286.19;5024170;28;20072;-64
2022/07/18 01:47:16;;;;;;;1.70;0.70;;;14.60;95.80;;;14.05;100.00;98289.44;5025215;28;20056;-63
2022/07/18 01:49:43;;;;;;;4.40;0.70;;;14.60;96.10;;;13.98;100.00;98281.91;5024858;28;20050;-65
2022/07/18 01:52:10;;;;;;;9.07;0.90;;;14.60;96.30;;;13.95;100.00;98286.41;5023787;28;20049;-65
2022/07/18 01:54:37;;;;;;;2.55;0.80;;;14.50;96.30;;;13.87;100.00;98280.69;5025139;28;20103;-63
2022/07/18 01:57:06;;;;;;;1.35;0.60;;;14.50;96.80;;;13.93;100.00;98278.63;5026770;28;20570;-64
2022/07/18 01:59:35;;;;;;;4.00;0.70;;;14.50;96.80;;;13.79;100.00;98276.63;5027543;28;20077;-66
2022/07/18 02:02:05;;;;;;;1.23;0.50;;;14.40;97.00;;;13.79;100.00;98281.84;5007857;28;20137;-66
2022/07/18 02:07:20;;;;;;;2.50;0.57;;;14.50;97.10;;;13.84;100.00;98281.66;5022153;28;20132;-66
2022/07/18 02:09:47;;;;;;;2.50;0.70;;;14.40;97.10;;;13.87;100.00;98275.47;5024504;28;20486;-66
2022/07/18 02:12:14;;;;;;;2.70;0.60;;;14.30;97.40;;;13.68;100.00;98272.81;5010541;28;20132;-65
2022/07/18 02:14:41;;;;;;;10.75;0.85;;;14.30;97.60;;;13.64;100.00;98268.63;5026359;28;20045;-66
2022/07/18 02:17:08;;;;;;;7.25;0.80;;;14.30;97.60;;;13.72;100.00;98272.63;5024494;28;20576;-66
2022/07/18 02:19:35;;;;;;;4.90;0.90;;;14.30;98.10;;;13.73;100.00;98269.09;5010039;28;20105;-66
2022/07/18 02:22:06;;;;;;;4.10;0.80;;;14.40;99.90;;;13.72;100.00;98274.38;5027274;28;20045;-67
2022/07/18 02:24:33;;;;;;;5.90;0.80;;;14.40;99.90;;;13.59;100.00;98261.88;5021707;28;20580;-65
2022/07/18 02:27:06;;;;;;;2.50;0.70;;;14.30;99.90;;;13.59;100.00;98261.88;5010321;28;20176;-66
2022/07/18 02:29:33;;;;;;;2.78;0.60;;;14.30;99.90;;;13.67;100.00;98266.75;5026261;28;20141;-67
2022/07/18 02:32:00;;;;;;;6.03;0.70;;;14.20;99.90;;;13.59;100.00;98264.50;5025023;28;20582;-67
2022/07/18 02:34:39;;;;;;;4.47;0.70;;;14.20;99.90;;;13.59;100.00;98256.66;5026658;28;20148;-64
2022/07/18 02:37:10;;;;;;;6.68;0.98;;;14.20;99.90;;;13.27;100.00;98260.59;5026704;28;20495;-63
2022/07/18 02:39:40;;;;;;;5.00;0.90;;;14.10;99.90;;;13.27;100.00;98268.44;5010325;28;20103;-63
2022/07/18 02:42:10;;;;;;;5.25;0.80;;;14.00;99.90;;;13.29;100.00;98265.81;5025255;28;20560;-64
2022/07/18 02:44:37;;;;;;;3.33;0.93;;;14.00;99.90;;;13.13;100.00;98260.34;5026611;28;20662;-65
2022/07/18 02:47:10;;;;;;;3.80;0.75;;;;;;;13.20;100.00;98267.00;5005642;28;20051;-66
2022/07/18 02:49:39;;;;;;;3.95;0.90;;;;;;;12.94;100.00;98266.34;5019937;28;20449;-65
2022/07/18 02:52:08;;;;;;;2.88;0.68;;;;;;;12.95;100.00;98269.78;5025431;28;20471;-65
2022/07/18 02:54:37;;;;;;;3.58;0.60;;;;;;;13.04;100.00;98269.41;5023376;28;20053;-66
2022/07/18 02:57:05;;;;;;;2.65;0.60;;;;;;;13.10;100.00;98268.31;5022168;28;20132;-66
2022/07/18 02:59:36;;;;;;;2.35;0.80;;;;;;;13.14;100.00;98267.28;5024640;28;20059;-66
2022/07/18 03:02:06;;;;;;;5.50;0.70;;;;;;;13.23;100.00;98266.91;5029133;28;20132;-66
2022/07/18 03:04:36;;;;;;;4.07;0.80;;;;;;;13.01;100.00;98264.31;5030168;28;20045;-64
2022/07/18 03:07:06;;;;;;;1.48;0.50;;;;;;;12.98;100.00;98261.84;5031813;28;20452;-63
2022/07/18 03:09:36;;;;;;;3.38;0.73;;;;;;;12.89;100.00;98262.25;5029177;28;20070;-64
2022/07/18 03:12:04;;;;;;;4.68;0.70;;;;;;;12.91;100.00;98263.88;5028625;28;20168;-65
2022/07/18 03:14:38;;;;;;;3.20;0.80;;;;;;;12.91;100.00;98266.47;5012061;28;20076;-65
2022/07/18 03:17:05;;;;;;;4.30;0.80;;;;;;;12.93;100.00;98267.25;5029621;28;20432;-65
2022/07/18 03:19:35;;;;;;;2.97;0.90;;;;;;;12.85;100.00;98268.47;5029002;28;20049;-66
2022/07/18 03:22:06;;;;;;;4.43;0.68;;;;;;;12.95;100.00;98268.03;5024614;28;20164;-65
2022/07/18 03:24:37;;;;;;;7.28;0.70;;;;;;;12.80;100.00;98271.28;5027091;28;20684;-65
2022/07/18 03:27:07;;;;;;;8.93;1.13;;;;;;;12.67;100.00;98276.13;5024052;28;20273;-65
2022/07/18 03:29:37;;;;;;;16.60;1.00;;;;;;;12.60;100.00;98277.28;5031462;28;20102;-64
2022/07/18 03:32:05;;;;;;;17.05;1.23;;;13.50;99.90;;;12.61;100.00;98268.53;5028797;28;20049;-66
2022/07/18 03:34:38;;;;;;;6.07;1.52;;;13.40;99.90;;;12.69;100.00;98276.91;5029121;28;20045;-65
2022/07/18 03:37:06;;;;;;;6.30;0.70;;;13.40;99.90;;;12.62;100.00;98269.41;5027084;28;20084;-66
2022/07/18 03:39:35;;;;;;;4.53;0.70;;;13.40;99.90;;;12.60;100.00;98273.81;5029170;28;20084;-65
2022/07/18 03:42:03;;;;;;;3.35;0.90;;;13.40;99.90;;;12.70;100.00;98278.63;5029571;28;20148;-65
2022/07/18 03:44:30;;;;;;;4.30;0.70;;;13.40;99.90;;;12.63;100.00;98284.94;5025327;28;20504;-66
2022/07/18 03:46:57;;;;;;;3.80;0.60;;;13.30;99.90;;;12.45;100.00;98283.94;5029321;28;20050;-66
2022/07/18 03:49:27;;;;;;;2.33;0.70;;;13.30;99.90;;;12.43;100.00;98282.28;5028421;28;20084;-66
2022/07/18 03:51:55;;;;;;;1.85;0.50;;;13.20;99.90;;;12.49;100.00;98290.69;5025954;28;20216;-66
2022/07/18 03:54:23;;;;;;;3.53;0.60;;;13.20;99.90;;;12.54;100.00;98285.31;5026683;28;20107;-65
2022/07/18 03:56:51;;;;;;;3.60;0.60;;;13.10;99.90;;;12.53;100.00;98287.06;5026039;28;20085;-66
2022/07/18 03:59:18;;;;;;;1.73;0.50;;;13.20;99.90;;;12.66;100.00;98291.81;5028477;28;20499;-65
2022/07/18 04:01:45;;;;;;;5.22;0.60;;;13.30;99.90;;;12.75;100.00;98288.84;5030252;28;20091;-64
2022/07/18 04:04:11;;;;;;;3.95;0.50;;;13.30;99.90;;;12.75;100.00;98283.66;5029565;28;20049;-65
2022/07/18 04:06:39;;;;;;;2.88;0.52;;;13.40;99.90;;;12.69;100.00;98291.69;5027064;28;20120;-65
2022/07/18 04:09:06;;;;;;;2.22;0.77;;;13.40;99.90;;;12.75;100.00;98287.09;5028602;28;20041;-64
2022/07/18 04:11:35;;;;;;;5.13;0.80;;;13.50;99.90;;;12.82;100.00;98285.09;5028093;28;20061;-64
2022/07/18 04:14:08;;;;;;;4.20;0.65;;;13.50;99.90;;;12.78;100.00;98291.31;5027627;28;20053;-65
2022/07/18 04:16:35;;;;;;;2.85;0.77;;;13.60;99.90;;;12.84;100.00;98290.22;5027009;28;20449;-64
2022/07/18 04:19:05;;;;;;;3.65;0.70;;;13.60;99.90;;;12.82;100.00;98286.81;5027995;28;20061;-65
2022/07/18 04:21:33;;;;;;;2.35;0.80;;;13.60;99.90;;;12.86;100.00;98289.25;5008602;28;20430;-65
2022/07/18 04:24:00;;;;;;;1.83;0.70;;;13.70;99.90;;;12.94;100.00;98295.00;5030201;28;20144;-65
2022/07/18 04:26:30;;;;;;;2.30;0.60;;;13.80;99.90;;;13.15;100.00;98293.25;5028278;28;20072;-65
2022/07/18 04:29:01;;;;;;;4.20;0.63;;;13.80;99.90;;;13.27;100.00;98281.47;5041384;28;20404;-64
2022/07/18 04:31:28;;;;;;;3.53;0.63;;;13.80;99.90;;;13.38;100.00;98296.69;5027248;28;20136;-64
2022/07/18 04:33:57;;;;;;;2.05;0.60;;;13.90;99.90;;;13.41;100.00;98290.50;5025976;28;20080;-65
2022/07/18 04:36:25;;;;;;;1.80;0.80;;;14.00;99.90;;;13.39;100.00;98287.97;5027550;28;20053;-63
2022/07/18 04:38:55;;;;;;;1.50;0.60;;;14.00;99.90;;;13.52;100.00;98288.28;5027463;28;20103;-66
2022/07/18 04:41:24;;;;;;;2.28;0.60;;;14.20;99.90;;;13.66;100.00;98285.06;5028086;28;20122;-64
2022/07/18 04:43:52;;;;;;;3.65;0.60;;;14.20;99.90;;;13.87;100.00;98283.31;5027303;28;20046;-65
2022/07/18 04:46:19;;;;;;;1.33;0.50;;;14.30;99.90;;;13.83;100.00;98279.97;5026959;28;20397;-64
2022/07/18 04:48:47;;;;;;;3.78;0.77;;;14.40;99.90;;;13.89;100.00;98279.72;5026598;28;20065;-65
2022/07/18 04:51:20;;;;;;;2.08;0.60;;;14.40;99.90;;;13.97;100.00;98285.41;5026063;28;20087;-65
2022/07/18 04:53:56;;;;;;;0.77;0.40;;;14.50;99.90;;;13.93;100.00;98283.00;5027864;28;20401;-65
2022/07/18 04:56:23;;;;;;;1.77;0.60;;;14.60;99.90;;;13.94;100.00;98282.09;5027988;28;20080;-65
2022/07/18 04:58:53;;;;;;;4.95;0.60;;;14.80;99.90;;;14.06;100.00;98285.94;5027155;28;20055;-64
2022/07/18 05:01:20;;;;;;;2.55;0.70;;;14.80;99.90;;;14.17;100.00;98279.28;5027232;28;20428;-63
2022/07/18 05:03:47;;;;;;;3.08;0.80;;;14.90;99.90;;;14.33;100.00;98278.59;5030614;28;20046;-64
2022/07/18 05:06:22;;;;;;;2.50;0.70;;;15.00;99.90;;;14.36;100.00;98279.28;5024197;28;20103;-65
2022/07/18 05:08:50;;;;;;;3.03;0.68;;;15.20;99.90;;;14.70;100.00;98279.50;5028403;28;20198;-64
2022/07/18 05:11:23;;;;;;;3.30;0.80;;;15.30;99.90;;;14.76;100.00;98281.81;5028255;28;20572;-65
2022/07/18 05:13:52;;;;;;;2.40;0.63;;;15.40;99.90;;;14.77;100.00;98280.88;5028306;28;20485;-65
2022/07/18 05:16:19;;;;;;;3.70;0.80;;;15.50;99.90;;;14.89;100.00;98275.03;5007989;28;20085;-65
2022/07/18 05:18:49;;;;;;;1.75;0.60;;;15.60;99.90;;;15.01;100.00;98276.25;5009823;28;20144;-65
2022/07/18 05:21:16;;;;;;;5.63;0.80;;;15.70;99.90;;;15.19;100.00;98271.84;5028531;28;20454;-65
2022/07/18 05:23:49;;;;;;;1.38;0.60;;;15.90;99.90;;;15.40;100.00;98272.53;5025321;28;20057;-64
2022/07/18 05:26:16;;;;;;;2.70;0.57;;;16.10;99.90;;;15.64;100.00;98268.63;5027377;28;20401;-65
2022/07/18 05:28:43;;;;;;;4.90;0.80;;;16.30;99.90;;;15.52;100.00;98268.44;5027923;28;20076;-64
2022/07/18 05:31:10;;;;;;;3.45;0.80;;;16.40;99.90;;;15.85;100.00;98271.97;5025083;28;20152;-64
2022/07/18 05:33:37;;;;;;;4.07;0.82;;;16.60;99.90;;;15.94;100.00;98277.63;5024956;28;20073;-64
2022/07/18 05:36:05;;;;;;;2.60;0.60;;;16.70;99.90;;;15.97;100.00;98282.72;5027498;28;20046;-64
2022/07/18 05:38:32;;;;;;;5.65;0.70;;;16.80;99.90;;;16.13;100.00;98275.72;5025117;28;20396;-64
2022/07/18 05:40:59;;;;;;;3.13;0.93;;;17.00;99.90;;;16.44;100.00;98285.34;5027169;28;20512;-64
2022/07/18 05:43:29;;;;;;;2.42;0.70;;;17.20;99.90;;;16.62;100.00;98288.72;5026802;28;20045;-63
2022/07/18 05:45:56;;;;;;;7.22;1.00;;;17.40;99.90;;;16.81;100.00;98282.47;5025624;28;20124;-64
2022/07/18 05:48:23;;;;;;;3.85;0.70;;;17.60;99.90;;;17.02;100.00;98286.50;5025943;28;20169;-63
2022/07/18 05:50:50;;;;;;;4.50;0.77;;;17.80;99.90;;;17.27;100.00;98279.84;5027710;28;20041;-64
2022/07/18 05:53:17;;;;;;;2.90;0.57;;;18.00;99.90;;;17.49;100.00;98277.66;5021800;28;20045;-64
2022/07/18 05:55:44;;;;;;;3.28;0.77;;;18.20;99.90;;;17.80;100.00;98272.31;5026776;28;20049;-65
2022/07/18 05:58:17;;;;;;;2.78;0.70;;;18.50;98.40;;;17.96;100.00;98273.09;5025885;28;20899;-64
2022/07/18 06:00:44;;;;;;;3.15;0.60;;;18.70;98.90;;;18.16;100.00;98266.63;5027527;28;20740;-65
2022/07/18 06:03:11;;;;;;;3.47;0.60;;;18.90;99.00;;;18.35;100.00;98269.75;5026970;28;20263;-65
2022/07/18 06:05:39;;;;;;;1.45;0.50;;;19.20;98.90;;;18.44;100.00;98267.50;5026625;28;20056;-64
2022/07/18 06:08:06;;;;;;;3.70;0.80;;;19.40;98.80;;;18.73;100.00;98268.25;5023671;28;20046;-65
2022/07/18 06:10:37;;;;;;;3.55;0.80;;;19.60;98.60;;;18.93;100.00;98266.97;5024887;28;20079;-64
2022/07/18 06:13:12;;;;;;;3.22;0.70;;;19.70;97.40;;;19.13;100.00;98265.66;5026255;28;20381;-65
2022/07/18 06:15:39;;;;;;;2.97;0.90;;;20.00;97.80;;;19.18;100.00;98263.56;5025974;28;20095;-65
2022/07/18 06:18:06;;;;;;;3.25;0.60;;;20.10;95.60;;;19.21;100.00;98266.00;5026433;28;20130;-65
2022/07/18 06:20:39;;;;;;;2.33;0.82;;;20.30;95.00;;;19.38;100.00;98260.44;5025766;28;20065;-65
2022/07/18 06:23:09;;;;;;;5.75;0.60;;;20.50;93.60;;;19.53;100.00;98258.56;5025892;28;20049;-65
2022/07/18 06:25:36;;;;;;;3.97;0.70;;;20.70;94.30;;;19.71;100.00;98259.13;5027306;28;20073;-65
2022/07/18 06:28:03;;;;;;;4.68;0.77;;;20.80;91.40;;;19.94;100.00;98261.97;5007578;28;20076;-64
2022/07/18 06:30:33;;;;;;;2.17;0.60;;;21.00;92.00;;;19.94;100.00;98262.78;5009194;28;20069;-64
2022/07/18 06:33:07;;;;;;;5.63;0.43;;;21.10;91.90;;;20.22;100.00;98255.56;5006216;28;20049;-65
2022/07/18 06:35:34;;;;;;;2.92;0.60;;;21.20;91.90;;;20.21;100.00;98254.75;5026015;28;20442;-65
2022/07/18 06:38:05;;;;;;;2.80;0.80;;;21.40;91.20;;;20.40;100.00;98258.69;5025124;28;20136;-65
2022/07/18 06:40:34;;;;;;;2.15;0.65;;;21.50;90.20;;;20.74;100.00;98264.19;5026132;28;20046;-65
2022/07/18 06:43:07;;;;;;;1.40;0.60;;;21.70;91.20;;;20.82;100.00;98249.50;5006875;28;20045;-66
2022/07/18 06:45:40;;;;;;;1.75;0.55;;;21.80;90.50;;;20.79;100.00;98256.78;5025919;28;20180;-65
2022/07/18 06:48:07;;;;;;;3.88;0.57;;;21.90;89.50;;;20.86;100.00;98248.28;5025848;28;20064;-64
2022/07/18 06:50:37;;;;;;;2.53;0.70;;;22.00;88.90;;;21.07;100.00;98247.66;5025244;28;20169;-65
2022/07/18 06:53:04;;;;;;;2.83;0.70;;;22.10;87.30;;;21.30;100.00;98245.91;5025293;28;20136;-65
2022/07/18 06:55:33;;;;;;;3.05;0.77;;;22.30;89.50;;;21.38;100.00;98247.97;5025976;28;20046;-65
2022/07/18 06:58:03;;;;;;;1.67;0.50;;;22.40;89.30;;;21.41;100.00;98245.13;5026266;28;20095;-64
2022/07/18 07:00:30;;;;;;;4.15;0.60;;;22.60;88.60;;;21.62;100.00;98255.84;5026339;28;20111;-65
2022/07/18 07:02:57;;;;;;;2.92;0.55;;;22.70;87.00;;;21.85;100.00;98249.63;5025351;28;20484;-65
2022/07/18 07:05:25;;;;;;;5.47;0.80;;;22.80;86.70;;;21.77;100.00;98256.47;5023723;28;20149;-65
2022/07/18 07:07:55;;;;;;;2.70;0.60;;;22.90;85.20;;;21.91;100.00;98253.59;5025034;28;20519;-64
2022/07/18 07:10:22;;;;;;;5.80;0.90;;;23.00;86.20;;;22.11;100.00;98254.66;5024527;28;20049;-65
2022/07/18 07:12:51;;;;;;;2.45;0.52;;;23.10;86.00;;;22.33;100.00;98256.50;5026376;28;20640;-64
2022/07/18 07:15:22;;;;;;;4.03;0.60;;;23.30;87.50;;;22.03;100.00;98251.78;5024453;28;20533;-65
2022/07/18 07:17:50;;;;;;;5.68;0.80;;;23.40;85.60;;;22.21;100.00;98247.72;5025925;28;20045;-65
2022/07/18 07:20:20;;;;;;;4.00;0.60;;;23.40;85.50;;;22.14;100.00;98246.50;5025831;28;20041;-65
2022/07/18 07:22:53;;;;;;;11.80;0.80;;;23.50;85.50;;;22.40;100.00;98247.09;5025065;28;20115;-65
2022/07/18 07:25:24;;;;;;;3.10;0.60;;;23.60;84.00;;;22.73;100.00;98240.84;5000877;28;20077;-65
2022/07/18 07:27:53;;;;;;;3.88;0.70;;;23.70;84.70;;;22.81;100.00;98245.53;5022471;28;20121;-65
2022/07/18 07:30:23;;;;;;;3.00;0.80;;;23.80;84.00;;;22.90;100.00;98238.66;5025981;28;20141;-66
2022/07/18 07:32:56;;;;;;;2.75;0.50;;;23.90;84.60;;;22.90;100.00;98241.31;5026350;28;20088;-65
2022/07/18 07:35:27;;;;;;;2.17;0.50;;;24.10;83.30;;;23.13;100.00;98236.78;5026152;28;20139;-65
2022/07/18 07:37:58;;;;;;;2.15;0.60;;;24.20;82.60;;;23.13;100.00;98234.94;5006340;28;20111;-66
2022/07/18 07:40:28;;;;;;;3.08;0.60;;;24.30;81.40;;;23.43;100.00;98240.44;5025882;28;20056;-66
2022/07/18 07:43:11;;;;;;;4.13;0.82;;;24.40;81.20;;;23.43;100.00;98238.63;5025623;28;20084;-65
2022/07/18 07:45:41;;;;;;;1.88;0.70;;;24.50;82.80;;;23.59;100.00;98233.69;5023231;28;20042;-66
2022/07/18 07:48:08;;;;;;;4.10;0.70;;;24.60;81.40;;;23.84;100.00;98234.28;4995066;28;20042;-64
2022/07/18 07:50:41;;;;;;;3.15;0.70;;;24.70;82.20;;;23.80;100.00;98233.69;5029950;28;20051;-66
2022/07/18 07:53:09;;;;;;;3.38;0.75;;;24.80;81.80;;;23.83;100.00;98243.19;5028257;28;20447;-63
2022/07/18 07:55:36;;;;;;;4.72;0.70;;;24.90;79.70;;;23.74;100.00;98242.19;5029793;28;20073;-64
2022/07/18 07:58:06;;;;;;;3.83;0.50;;;24.90;80.60;;;23.89;100.00;98239.19;5026966;28;20095;-64
2022/07/18 08:00:36;;;;;;;6.00;0.80;;;25.00;81.20;;;24.23;100.00;98231.75;5009527;28;20124;-65
2022/07/18 08:03:06;;;;;;;3.70;0.60;;;25.10;80.00;;;24.21;100.00;98237.19;5025705;28;20415;-64
2022/07/18 08:05:38;;;;;;;3.97;0.80;;;25.20;79.80;;;24.24;100.00;98232.59;5028165;28;20504;-66
2022/07/18 08:08:06;;;;;;;4.25;0.85;;;25.30;78.70;;;24.42;100.00;98230.97;5029111;28;20045;-64
2022/07/18 08:10:33;;;;;;;1.55;0.60;;;25.30;78.00;;;24.55;100.00;98228.91;5010686;28;20588;-66
2022/07/18 08:13:11;;;;;;;3.17;0.70;;;25.50;78.00;;;24.88;100.00;98223.34;5027523;28;20122;-64
2022/07/18 08:15:38;;;;;;;4.88;0.77;;;25.60;79.00;;;24.96;100.00;98227.00;5028163;28;20047;-65
2022/07/18 08:18:11;;;;;;;1.85;0.80;;;25.70;77.40;;;25.20;100.00;98226.59;5027860;28;20680;-65
2022/07/18 08:20:38;;;;;;;3.53;0.75;;;25.90;77.90;;;25.18;100.00;98225.91;5026903;28;20574;-64
2022/07/18 08:23:09;;;;;;;3.33;0.82;;;26.00;77.50;;;25.36;100.00;98228.66;5029154;28;20129;-65
2022/07/18 08:25:39;;;;;;;3.85;0.70;;;26.10;77.10;;;25.43;100.00;98224.44;5028417;28;20106;-66
2022/07/18 08:28:08;;;;;;;2.30;0.63;;;26.10;77.20;;;25.60;100.00;98232.66;5027208;28;20096;-65
2022/07/18 08:30:41;;;;;;;2.40;0.80;;;26.30;77.60;;;25.70;100.00;98233.44;5027749;28;20124;-65
2022/07/18 08:33:08;;;;;;;3.10;0.65;;;26.40;75.20;;;25.65;99.25;98230.41;5028164;28;20396;-65
2022/07/18 08:35:36;;;;;;;3.55;0.60;;;26.60;74.20;;;25.96;97.90;98238.16;5028223;28;20124;-66
2022/07/18 08:38:04;;;;;;;1.92;0.60;;;26.80;73.90;;;25.87;100.00;98235.38;5024654;28;20156;-65
2022/07/18 08:40:36;;;;;;;5.78;0.70;;;27.00;81.30;;;25.90;99.70;98236.09;5028631;28;20517;-64
2022/07/18 08:43:03;;;;;;;3.33;0.55;;;27.10;80.70;;;26.34;100.00;98230.97;5010714;28;20108;-65
2022/07/18 08:45:49;;;;;;;4.55;0.60;;;27.30;82.60;;;26.60;98.43;98225.78;5028648;28;20192;-66
2022/07/18 08:48:17;;;;;;;2.28;0.75;;;27.40;81.60;;;26.38;96.06;98229.69;5006891;28;20107;-66
2022/07/18 08:50:48;;;;;;;1.17;0.50;;;27.50;72.60;;;27.00;95.43;98225.31;5029434;28;20084;-70
2022/07/18 08:53:17;;;;;;;5.57;0.50;;;27.70;73.00;;;26.80;91.37;98219.34;5026801;28;20073;-65
2022/07/18 08:55:45;;;;;;;2.65;0.50;;;27.90;71.00;;;27.19;91.61;98215.50;5026321;28;20145;-66
2022/07/18 08:58:17;;;;;;;4.50;0.63;;;27.90;71.20;;;27.60;90.10;98221.97;5007766;28;20077;-66
2022/07/18 09:01:04;;;;;;;2.55;0.70;;;28.20;76.80;;;28.04;90.05;98216.53;5026586;28;20084;-65
2022/07/18 09:03:32;;;;;;;2.42;0.50;;;28.60;87.50;;;27.80;83.95;98221.72;5024166;28;20449;-65
2022/07/18 09:06:13;;;;;;;1.38;0.52;;;28.80;91.20;;;28.75;84.33;98219.75;5025281;28;20573;-66
2022/07/18 09:09:00;;;;;;;2.50;0.60;;;29.10;92.50;;;29.42;80.70;98218.78;5023227;28;20061;-66
2022/07/18 09:11:28;;;;;;;6.95;0.90;;;;;;;28.70;81.27;98219.44;5013421;28;20127;-66
2022/07/18 09:14:38;;;;;;;2.47;0.60;;;29.80;67.10;;;29.31;78.56;98215.47;5025944;28;20053;-66
2022/07/18 09:17:25;;;;;;;4.80;0.50;;;30.00;67.40;;;29.50;74.52;98211.56;5027015;28;20532;-65
2022/07/18 09:20:03;;;;;;;6.13;0.70;;;30.30;77.30;;;29.36;75.27;98215.78;5026145;28;20152;-65
2022/07/18 09:22:32;;;;;;;1.38;0.50;;;30.30;66.70;;;30.00;72.17;98207.78;5027261;28;20200;-66
2022/07/18 09:25:15;;;;;;;1.50;0.70;;;30.40;65.10;;;29.39;64.08;98204.72;5027238;28;20069;-64
2022/07/18 09:27:46;;;;;;;3.20;0.50;;;30.20;62.00;;;30.73;68.65;98202.22;5009662;28;20045;-64
2022/07/18 09:30:20;;;;;;;2.15;0.60;;;30.50;64.80;;;30.67;65.11;98208.28;5023758;28;20049;-65
2022/07/18 09:32:52;;;;;;;1.38;0.60;;;30.90;63.80;;;30.64;61.49;98201.44;5020984;28;20037;-66
2022/07/18 09:35:28;;;;;;;1.73;0.60;;;30.80;62.40;;;31.11;59.60;98207.63;5024659;28;20053;-65
2022/07/18 09:38:09;;;;;;;1.02;0.43;;;31.20;62.20;;;31.27;56.42;98210.19;5022871;28;20152;-65
2022/07/18 09:40:39;;;;;;;1.42;0.60;;;;;;;31.40;56.09;98202.31;5023309;28;20076;-64
2022/07/18 09:43:09;;;;;;;2.75;0.45;;;31.50;60.10;;;31.08;54.09;98206.16;5022592;28;20060;-66
2022/07/18 09:45:43;;;;;;;2.75;0.60;;;31.50;60.20;;;31.11;55.54;98204.94;5024729;28;20124;-66
2022/07/18 09:48:19;;;;;;;5.00;0.40;;;31.60;60.60;;;31.86;56.27;98201.34;5007249;28;20053;-66
2022/07/18 09:51:05;;;;;;;2.88;0.50;;;31.70;61.60;;;32.74;51.09;98193.34;5025810;28;20479;-65
2022/07/18 09:53:38;;;;;;;2.63;0.43;;;32.10;61.50;;;33.09;48.21;98195.13;5023248;28;20124;-66
2022/07/18 09:56:07;;;;;;;3.35;0.50;;;32.30;59.60;;;33.11;44.03;98192.25;5020521;28;20052;-65
2022/07/18 09:58:39;;;;;;;1.67;0.40;;;32.50;57.80;;;32.42;46.17;98188.25;5007065;28;20081;-66
2022/07/18 10:01:09;;;;;;;1.92;0.40;;;32.50;58.50;;;33.56;46.34;98189.28;5023126;28;20598;-65
2022/07/18 10:03:39;;;;;;;1.42;0.40;;;32.30;59.50;;;34.36;45.40;98180.56;5025613;28;20084;-66
2022/07/18 10:06:06;;;;;;;3.78;0.50;;;32.60;59.30;;;33.71;40.01;98174.69;5026645;28;20136;-66
2022/07/18 10:08:35;;;;;;;1.88;0.45;;;32.90;57.20;;;33.83;39.66;98183.03;5022716;28;20519;-65
2022/07/18 10:11:05;;;;;;;2.17;0.60;;;33.00;56.40;;;34.47;40.92;98176.47;5025042;28;20128;-65
2022/07/18 10:13:35;;;;;;;0.55;0.30;;;33.40;57.20;;;33.30;38.73;98178.16;5022878;28;20156;-66
2022/07/18 10:16:04;;;;;;;0.88;0.30;;;33.30;54.80;;;33.51;39.28;98185.31;5026236;28;20156;-67
2022/07/18 10:18:36;;;;;;;1.42;0.40;;;33.10;56.00;;;34.85;38.39;98191.28;5024715;28;20103;-67
2022/07/18 10:21:12;;;;;;;2.67;0.47;;;33.20;56.60;;;33.43;37.78;98190.00;5026607;28;20049;-65
2022/07/18 10:23:45;;;;;;;1.55;0.60;;;33.40;55.00;;;34.31;35.75;98184.94;5025149;28;20081;-66
2022/07/18 10:26:25;;;;;;;1.50;0.50;;;33.30;54.60;;;34.73;36.05;98191.06;5022772;28;20125;-66
2022/07/18 10:28:55;;;;;;;0.75;0.32;;;33.60;55.20;;;35.26;36.74;98187.56;5024637;28;20133;-66
2022/07/18 10:31:38;;;;;;;1.23;0.50;;;34.00;55.60;;;36.16;32.84;98185.94;5023158;28;20088;-66
2022/07/18 10:34:09;;;;;;;2.65;0.47;;;34.50;54.60;;;36.11;32.93;98184.94;5007950;28;20056;-66